Buoy 41991

sailwx.info

Track history (hours):
 
Tides and Currents Weather Stations Pressure Air Temp Water Temp Dewpoint Dewpoint Depression Visibility Wind Speed Wind Dir Waves Ship Positions

Drifting buoy 41991

Last reported at 2014-Sep-16 13:13 UTC. Time now 2014-Sep-16 15:34 UTC.
Position N 34°53' W 045°15'.

Water temperature 26.9 ° C

Date/timePositionNaut miles runAvg speedWind from/ knotsBaromVisibWave heightAir tempDewpointWater temp
2014-Sep-16 13:13N 34°53' W 045°15'1 1.2 26.9
2014-Sep-16 12:21N 34°52' W 045°16'0 0.0 26.7
2014-Sep-16 11:35N 34°52' W 045°16'0 0.0 26.7
2014-Sep-16 10:51N 34°52' W 045°16'120.8 26.6
2014-Sep-16 10:47N 34°51' W 045°16'0 0.0 26.6
2014-Sep-16 09:23N 34°51' W 045°16'1 3.0 26.6
2014-Sep-16 09:07N 34°50' W 045°16'0 0.0 26.6
2014-Sep-16 09:05N 34°50' W 045°16'0 0.0 26.6
2014-Sep-16 07:43N 34°50' W 045°16'0 2.6 26.7
2014-Sep-16 07:40N 34°50' W 045°16'0 1.6 26.7
2014-Sep-16 07:29N 34°50' W 045°16'0 2.3
2014-Sep-16 07:27N 34°50' W 045°16'0 0.0 26.7
2014-Sep-16 06:59N 34°50' W 045°16'111.8 26.8
2014-Sep-16 06:53N 34°49' W 045°17'0 0.0 26.8
2014-Sep-16 05:19N 34°49' W 045°17'1 8.4 26.8
2014-Sep-16 05:12N 34°49' W 045°18'0 0.0 26.8
2014-Sep-16 03:39N 34°49' W 045°18'110.8 26.9
2014-Sep-16 03:32N 34°48' W 045°19'0 0.1 26.9
2014-Sep-16 01:48N 34°48' W 045°19'1 8.7 26.9
2014-Sep-16 01:43N 34°47' W 045°20'1 1.7 26.9
2014-Sep-16 00:55N 34°47' W 045°21'0 0.0 26.9
2014-Sep-16 00:10N 34°47' W 045°21'1 0.7 26.9
2014-Sep-15 23:22N 34°46' W 045°21'1 0.9 27.1
2014-Sep-15 22:29N 34°46' W 045°22'1 5.9 27.2
2014-Sep-15 22:23N 34°46' W 045°22'0 0.0 27.2
2014-Sep-15 22:09N 34°46' W 045°22'1 0.6 27.3
2014-Sep-15 20:58N 34°45' W 045°22'0 2.5 27.5
2014-Sep-15 20:49N 34°45' W 045°22'0 3.2 27.5
2014-Sep-15 20:43N 34°44' W 045°22'0 0.0
2014-Sep-15 20:20N 34°44' W 045°22'0 0.0 27.7
2014-Sep-15 19:11N 34°44' W 045°22'1 9.9 28.1
2014-Sep-15 19:04N 34°44' W 045°23'0 0.0 28.1
2014-Sep-15 18:35N 34°44' W 045°23'1 0.5 28.2
2014-Sep-15 17:29N 34°44' W 045°22'0 0.7 28.3
2014-Sep-15 16:57N 34°44' W 045°23'1 0.4 28.3
2014-Sep-15 15:14N 34°44' W 045°24'1 0.9 28.0
2014-Sep-15 14:29N 34°44' W 045°24'0 0.1 27.4
2014-Sep-15 13:43N 34°43' W 045°24'0 1.5 27.3
2014-Sep-15 13:35N 34°44' W 045°25'0 0.0 27.3
2014-Sep-15 12:44N 34°44' W 045°25'120.0
2014-Sep-15 12:42N 34°44' W 045°25'0 0.0 26.9
2014-Sep-15 11:59N 34°44' W 045°25'236.7
2014-Sep-15 11:56N 34°44' W 045°28'0 0.0 26.8
2014-Sep-15 11:06N 34°44' W 045°28'0 0.0 26.7
2014-Sep-15 09:54N 34°44' W 045°28'0 0.6 26.7
2014-Sep-15 09:40N 34°44' W 045°28'0 1.3 26.7
2014-Sep-15 09:26N 34°44' W 045°28'1 8.0 26.7
2014-Sep-15 09:19N 34°44' W 045°29'0 0.1 26.7
2014-Sep-15 07:57N 34°44' W 045°29'0 1.5 26.7
2014-Sep-15 07:37N 34°44' W 045°29'0 0.0 26.7
2014-Sep-15 07:12N 34°44' W 045°29'1 9.6 26.7
2014-Sep-15 07:05N 34°44' W 045°31'0 0.0 26.7
2014-Sep-15 06:33N 34°44' W 045°31'0 0.0 26.7
2014-Sep-15 05:57N 34°44' W 045°31'0 0.0 26.7
2014-Sep-15 05:30N 34°44' W 045°31'114.8 26.7
2014-Sep-15 05:25N 34°44' W 045°32'0 0.0 26.7
2014-Sep-15 03:47N 34°44' W 045°32'1 0.6 26.7
2014-Sep-15 02:09N 34°44' W 045°33'0 0.2 26.8
2014-Sep-15 01:22N 34°44' W 045°33'012.3 26.8
2014-Sep-15 01:21N 34°44' W 045°33'0 0.6 26.8
2014-Sep-15 00:31N 34°43' W 045°34'1 0.7 26.8
2014-Sep-14 23:41N 34°43' W 045°35'0 0.5 26.8
2014-Sep-14 22:49N 34°44' W 045°35'110.7 26.8
2014-Sep-14 22:44N 34°44' W 045°36'0 0.2 26.8
2014-Sep-14 21:18N 34°44' W 045°36'1 4.0 26.9
2014-Sep-14 20:59N 34°45' W 045°38'0 0.0 26.9
2014-Sep-14 20:48N 34°45' W 045°38'0 0.0
2014-Sep-14 19:42N 34°45' W 045°38'0 0.1 26.9
2014-Sep-14 19:22N 34°45' W 045°38'1 1.9 26.9
2014-Sep-14 18:45N 34°45' W 045°39'0 0.0 26.9
2014-Sep-14 17:57N 34°45' W 045°39'0 9.2 26.9
2014-Sep-14 17:55N 34°45' W 045°39'0 0.0 26.9
2014-Sep-14 17:41N 34°45' W 045°39'0 0.5 26.9
2014-Sep-14 17:09N 34°46' W 045°39'1 0.7 26.9
2014-Sep-14 15:27N 34°46' W 045°40'1 1.2 26.8
2014-Sep-14 14:49N 34°47' W 045°41'0 0.0 26.7
2014-Sep-14 13:59N 34°47' W 045°41'114.5 26.7
2014-Sep-14 13:54N 34°48' W 045°42'1 1.4 26.7
2014-Sep-14 13:11N 34°47' W 045°41'1 1.2 26.7
2014-Sep-14 12:21N 34°48' W 045°42'1 1.4 26.7
2014-Sep-14 11:23N 34°48' W 045°43'0 0.0 26.7
2014-Sep-14 10:24N 34°48' W 045°43'1 2.1 26.7
2014-Sep-14 09:59N 34°49' W 045°43'112.1 26.7
2014-Sep-14 09:55N 34°50' W 045°44'0 0.7 26.7
2014-Sep-14 09:30N 34°50' W 045°44'0 0.0 26.7
2014-Sep-14 08:46N 34°50' W 045°44'0 0.9 26.7
2014-Sep-14 08:21N 34°50' W 045°45'1 2.5 26.7
2014-Sep-14 07:54N 34°51' W 045°46'0 0.0 26.7
2014-Sep-14 07:49N 34°51' W 045°46'0 0.0 26.7
2014-Sep-14 07:22N 34°51' W 045°46'0 0.9 26.7
2014-Sep-14 07:04N 34°51' W 045°46'1 1.9 26.7
2014-Sep-14 06:41N 34°52' W 045°46'1 1.1 26.7
2014-Sep-14 06:10N 34°52' W 045°47'0 0.0 26.7
2014-Sep-14 05:40N 34°52' W 045°47'2 1.1 26.7
2014-Sep-14 03:58N 34°54' W 045°48'232.6 26.7
2014-Sep-14 03:55N 34°55' W 045°49'0 0.0 26.7
2014-Sep-14 01:43N 34°55' W 045°49'1 0.7 26.8
2014-Sep-14 00:51N 34°56' W 045°49'0 1.0 26.8
2014-Sep-14 00:48N 34°56' W 045°49'1 1.1 26.8
2014-Sep-14 00:05N 34°57' W 045°50'0 0.0 26.8
2014-Sep-14 00:00N 34°57' W 045°50'1 1.2 26.8
2014-Sep-13 23:10N 34°57' W 045°50'1 1.0 26.8
2014-Sep-13 21:44N 34°59' W 045°51'231.8 26.8
2014-Sep-13 21:40N 35°01' W 045°51'211.3 26.8
2014-Sep-13 21:32N 34°59' W 045°51'2 4.1 26.8
2014-Sep-13 21:10N 35°01' W 045°51'0 0.0 26.8
2014-Sep-13 20:08N 35°01' W 045°51'132.3 26.8
2014-Sep-13 20:06N 35°02' W 045°52'0 0.0 26.8
2014-Sep-13 19:46N 35°02' W 045°52'0 0.0 26.9
2014-Sep-13 19:34N 35°02' W 045°52'2 1.9 26.9
2014-Sep-13 18:26N 35°04' W 045°52'0 0.0 26.9
2014-Sep-13 17:52N 35°04' W 045°52'1 1.4 26.8
2014-Sep-13 17:20N 35°05' W 045°53'0 1.0 26.8
2014-Sep-13 17:13N 35°04' W 045°53'2 1.4 26.8
2014-Sep-13 15:38N 35°06' W 045°54'0 0.0 26.8
2014-Sep-13 15:06N 35°06' W 045°54'1 1.9 26.7
2014-Sep-13 14:24N 35°08' W 045°54'318.6 26.7
2014-Sep-13 14:13N 35°11' W 045°56'0 0.2 26.7
2014-Sep-13 12:35N 35°10' W 045°56'0 0.0 26.7
2014-Sep-13 11:52N 35°10' W 045°56'1 0.9 26.7
2014-Sep-13 10:26N 35°12' W 045°56'1 1.6 26.7
2014-Sep-13 09:47N 35°13' W 045°56'112.3 26.7
2014-Sep-13 09:42N 35°14' W 045°55'1 1.3 26.7
2014-Sep-13 09:13N 35°13' W 045°56'1 1.4 26.7
2014-Sep-13 08:45N 35°14' W 045°55'1 1.2 26.7
2014-Sep-13 08:07N 35°14' W 045°55'1 6.2 26.7
2014-Sep-13 08:02N 35°15' W 045°56'0 0.2 26.7
2014-Sep-13 07:35N 35°15' W 045°56'1 4.8 26.7
2014-Sep-13 07:28N 35°16' W 045°56'0 0.0 26.7
2014-Sep-13 07:08N 35°16' W 045°56'211.5 26.7
2014-Sep-13 06:59N 35°17' W 045°55'0 0.0 26.7
2014-Sep-13 05:52N 35°17' W 045°55'325.8 26.7
2014-Sep-13 05:46N 35°20' W 045°55'0 0.0 26.7
2014-Sep-13 04:12N 35°20' W 045°55'0 3.8 26.7
2014-Sep-13 04:08N 35°20' W 045°56'475.6 26.7
2014-Sep-13 04:05N 35°24' W 045°56'0 0.0 26.7
2014-Sep-13 01:58N 35°24' W 045°56'0 0.0 26.7
2014-Sep-13 01:12N 35°24' W 045°56'110.2 26.8
2014-Sep-13 01:05N 35°25' W 045°56'0 0.0 26.8
2014-Sep-13 00:25N 35°25' W 045°56'1 1.4 26.8
2014-Sep-12 23:34N 35°26' W 045°55'1 8.7 26.8
2014-Sep-12 23:25N 35°27' W 045°56'0 0.0 26.8
2014-Sep-12 22:44N 35°27' W 045°56'2 2.4 26.8
2014-Sep-12 21:59N 35°29' W 045°55'0 0.0 26.8
2014-Sep-12 20:32N 35°29' W 045°55'0 0.0 26.9
2014-Sep-12 20:14N 35°29' W 045°55'0 0.0 26.9
2014-Sep-12 19:45N 35°29' W 045°55'1 1.0 26.9
2014-Sep-12 18:52N 35°29' W 045°55'0 2.1 26.9
2014-Sep-12 18:43N 35°30' W 045°55'0 0.0 26.9
2014-Sep-12 18:04N 35°30' W 045°55'1 1.5 26.9
2014-Sep-12 17:30N 35°30' W 045°54'1 0.9 27.0
2014-Sep-12 15:50N 35°31' W 045°53'2 1.3 26.9
2014-Sep-12 14:40N 35°32' W 045°51'2 2.6 26.9
2014-Sep-12 13:54N 35°34' W 045°52'0 0.0 26.8
2014-Sep-12 13:06N 35°34' W 045°52'1 4.6 26.7
2014-Sep-12 12:55N 35°35' W 045°51'0 0.0 26.7
2014-Sep-12 12:12N 35°35' W 045°51'3 3.0 26.7
2014-Sep-12 11:17N 35°37' W 045°50'0 0.0 26.6
2014-Sep-12 10:45N 35°37' W 045°50'0 0.0 26.7
2014-Sep-12 09:59N 35°37' W 045°50'0 3.0 26.7
2014-Sep-12 09:53N 35°38' W 045°50'0 3.6 26.7
2014-Sep-12 09:48N 35°37' W 045°50'0 9.1 26.7
2014-Sep-12 09:46N 35°38' W 045°50'0 0.0 26.7
2014-Sep-12 09:11N 35°38' W 045°50'111.4 26.7
2014-Sep-12 09:07N 35°38' W 045°49'0 0.0 26.7
2014-Sep-12 08:19N 35°38' W 045°49'0 0.0 26.7
2014-Sep-12 08:10N 35°38' W 045°49'1 2.0 26.7
2014-Sep-12 07:41N 35°39' W 045°49'0 0.0 26.7
2014-Sep-12 07:31N 35°39' W 045°49'1 0.8 26.7
2014-Sep-12 06:39N 35°39' W 045°49'0 3.0 26.7
2014-Sep-12 06:32N 35°40' W 045°48'0 0.2 26.7
2014-Sep-12 06:00N 35°39' W 045°48'1 7.0 26.7
2014-Sep-12 05:53N 35°40' W 045°48'0 0.1 26.7
2014-Sep-12 04:23N 35°40' W 045°48'1 7.7 26.7
2014-Sep-12 04:18N 35°40' W 045°49'2 0.7 26.7
2014-Sep-12 01:34N 35°41' W 045°46'1 4.0 26.6
2014-Sep-12 01:25N 35°41' W 045°46'0 0.0 26.6
2014-Sep-12 00:46N 35°41' W 045°46'117.9 26.6
2014-Sep-12 00:44N 35°41' W 045°45'0 0.0 26.6
2014-Sep-11 23:54N 35°41' W 045°45'0 0.6 26.6
2014-Sep-11 23:04N 35°41' W 045°44'1 8.9 26.6
2014-Sep-11 22:59N 35°41' W 045°44'0 0.0 26.7
2014-Sep-11 22:34N 35°41' W 045°44'2 1.0 26.8
2014-Sep-11 20:56N 35°42' W 045°42'0 0.0 26.9
2014-Sep-11 20:45N 35°42' W 045°42'0 0.0 26.9
2014-Sep-11 19:57N 35°42' W 045°42'0 0.0 26.9
2014-Sep-11 19:52N 35°42' W 045°42'0 0.4 26.9
2014-Sep-11 19:12N 35°42' W 045°42'113.2 26.9
2014-Sep-11 19:07N 35°43' W 045°41'1 0.6 26.9
2014-Sep-11 18:13N 35°43' W 045°40'0 0.1 26.9
2014-Sep-11 17:41N 35°43' W 045°40'1 0.4 26.9
2014-Sep-11 16:00N 35°43' W 045°40'2 0.9 26.9
2014-Sep-11 14:16N 35°43' W 045°38'0 0.0 26.8
2014-Sep-11 14:13N 35°43' W 045°38'1 0.7 26.8
2014-Sep-11 12:26N 35°43' W 045°36'2 0.7 26.7
2014-Sep-11 10:05N 35°42' W 045°34'0 0.0 26.7
2014-Sep-11 09:38N 35°42' W 045°34'0 5.5 26.7
2014-Sep-11 09:33N 35°42' W 045°34'0 0.3 26.7
2014-Sep-11 08:30N 35°42' W 045°33'116.6 26.7
2014-Sep-11 08:25N 35°41' W 045°32'0 0.0 26.7
2014-Sep-11 07:55N 35°41' W 045°32'0 0.1 26.7
2014-Sep-11 06:49N 35°42' W 045°32'0 2.4 26.7
2014-Sep-11 06:45N 35°42' W 045°32'112.9 26.7
2014-Sep-11 06:42N 35°41' W 045°31'0 0.0 26.7
2014-Sep-11 06:13N 35°41' W 045°31'114.6 26.7
2014-Sep-11 06:09N 35°41' W 045°30'0 0.0 26.7
2014-Sep-11 06:06N 35°41' W 045°30'0 0.0 26.7
2014-Sep-11 04:35N 35°41' W 045°30'323.4 26.8
2014-Sep-11 04:28N 35°40' W 045°27'0 0.0 26.8
2014-Sep-11 01:53N 35°40' W 045°27'1 6.2 26.9
2014-Sep-11 01:47N 35°39' W 045°27'0 0.1 26.9
2014-Sep-11 01:03N 35°39' W 045°27'114.4
2014-Sep-11 00:59N 35°39' W 045°25'0 0.0 27.0
2014-Sep-11 00:15N 35°39' W 045°25'1 0.6 27.0
2014-Sep-10 23:25N 35°39' W 045°25'0 2.7 27.1
2014-Sep-10 23:14N 35°39' W 045°25'0 0.0
2014-Sep-10 23:00N 35°39' W 045°25'0 0.4 27.0
2014-Sep-10 22:29N 35°38' W 045°25'2 1.5 27.1
2014-Sep-10 21:20N 35°38' W 045°23'1 0.6 27.2
2014-Sep-10 20:08N 35°37' W 045°23'0 0.9 27.4
2014-Sep-10 20:03N 35°37' W 045°23'2 4.1 27.5
2014-Sep-10 19:40N 35°36' W 045°22'0 0.0 27.6
2014-Sep-10 18:27N 35°36' W 045°22'1 1.2 27.7
2014-Sep-10 17:58N 35°36' W 045°21'0 1.6 27.6
2014-Sep-10 17:53N 35°36' W 045°21'2 1.5 27.6
2014-Sep-10 16:43N 35°34' W 045°20'0 0.0 27.4
2014-Sep-10 16:13N 35°34' W 045°20'0 0.0 27.3
2014-Sep-10 16:10N 35°34' W 045°20'2 1.2 27.3
2014-Sep-10 14:33N 35°33' W 045°18'0 0.0 27.2
2014-Sep-10 14:30N 35°33' W 045°18'1 1.2 27.1
2014-Sep-10 13:45N 35°32' W 045°17'3 1.7 26.9
2014-Sep-10 11:58N 35°30' W 045°15'0 0.0 26.7
2014-Sep-10 11:12N 35°30' W 045°15'1 7.9 26.7
2014-Sep-10 11:06N 35°29' W 045°15'0 0.0 26.7
2014-Sep-10 10:47N 35°29' W 045°15'0 0.0 26.7
2014-Sep-10 09:59N 35°29' W 045°15'135.2 26.7
2014-Sep-10 09:57N 35°29' W 045°14'0 0.0 26.7
2014-Sep-10 09:12N 35°29' W 045°14'0 1.1 26.7
2014-Sep-10 08:44N 35°28' W 045°13'0 4.1 26.7
2014-Sep-10 08:37N 35°28' W 045°13'115.1 26.7
2014-Sep-10 08:33N 35°27' W 045°12'0 0.0 26.7
2014-Sep-10 08:13N 35°27' W 045°12'0 0.0 26.7
2014-Sep-10 07:32N 35°27' W 045°12'0 0.0 26.7
2014-Sep-10 07:29N 35°27' W 045°12'1 1.0 26.7
2014-Sep-10 06:58N 35°27' W 045°12'1 1.9 26.7
2014-Sep-10 06:37N 35°26' W 045°11'0 0.0 26.7
2014-Sep-10 06:28N 35°26' W 045°11'0 1.8 26.7
2014-Sep-10 06:21N 35°26' W 045°11'118.4 26.7
2014-Sep-10 06:17N 35°25' W 045°10'0 0.0 26.7
2014-Sep-10 04:45N 35°25' W 045°10'329.2 26.7
2014-Sep-10 04:38N 35°22' W 045°09'0 0.0 26.7
2014-Sep-10 02:11N 35°22' W 045°09'1 1.3 26.7
2014-Sep-10 01:25N 35°21' W 045°09'0 0.1 26.7
2014-Sep-10 00:35N 35°21' W 045°09'1 1.5 26.8
2014-Sep-09 23:45N 35°20' W 045°09'0 3.0 26.8
2014-Sep-09 23:40N 35°20' W 045°08'1 1.5 26.8
2014-Sep-09 22:55N 35°19' W 045°08'1 6.8 26.8
2014-Sep-09 22:44N 35°18' W 045°08'0 0.0 26.8
2014-Sep-09 21:58N 35°18' W 045°08'0 1.2 26.9
2014-Sep-09 21:44N 35°18' W 045°07'2 1.2 26.9
2014-Sep-09 20:11N 35°16' W 045°06'117.1 27.0
2014-Sep-09 20:06N 35°15' W 045°05'0 0.0 27.0
2014-Sep-09 18:38N 35°15' W 045°05'0 0.6 27.1
2014-Sep-09 17:59N 35°15' W 045°05'1 1.2 27.1
2014-Sep-09 16:55N 35°13' W 045°05'0 0.0 27.1
2014-Sep-09 16:23N 35°13' W 045°05'1 0.9 27.1
2014-Sep-09 14:52N 35°12' W 045°05'0 0.0 26.9
2014-Sep-09 14:41N 35°12' W 045°05'1 1.2 26.9
2014-Sep-09 14:07N 35°12' W 045°05'211.8 26.9
2014-Sep-09 13:58N 35°10' W 045°04'1 0.9 26.8
2014-Sep-09 13:14N 35°10' W 045°05'1 0.7 26.7
2014-Sep-09 12:22N 35°10' W 045°04'116.7 26.7
2014-Sep-09 12:19N 35°09' W 045°04'0 0.0 26.7
2014-Sep-09 11:34N 35°09' W 045°04'0 2.8 26.7
2014-Sep-09 11:29N 35°09' W 045°04'1 1.1 26.7
2014-Sep-09 10:24N 35°08' W 045°04'114.4 26.7
2014-Sep-09 10:21N 35°07' W 045°04'0 0.0 26.7
2014-Sep-09 09:42N 35°07' W 045°04'1 0.9 26.7
2014-Sep-09 08:53N 35°07' W 045°04'0 0.0 26.7
2014-Sep-09 08:48N 35°07' W 045°04'119.2 26.7
2014-Sep-09 08:45N 35°06' W 045°04'0 0.0 26.7
2014-Sep-09 08:00N 35°06' W 045°04'1 0.7 26.7
2014-Sep-09 07:12N 35°05' W 045°04'1 6.5 26.7
2014-Sep-09 07:06N 35°04' W 045°04'0 0.0 26.7
2014-Sep-09 06:40N 35°04' W 045°04'1 7.0 26.7
2014-Sep-09 06:29N 35°03' W 045°05'0 0.0 26.7
2014-Sep-09 05:00N 35°03' W 045°05'0 0.0 26.7
2014-Sep-09 04:56N 35°03' W 045°05'0 1.4 26.7
2014-Sep-09 04:51N 35°03' W 045°04'352.3 26.7
2014-Sep-09 04:47N 34°60' W 045°05'0 0.0 26.7
2014-Sep-09 03:13N 34°60' W 045°05'0 0.0 26.7
2014-Sep-09 01:40N 34°60' W 045°05'0 0.0 26.8
2014-Sep-09 00:56N 34°60' W 045°05'0 0.0 26.8
2014-Sep-09 00:52N 34°60' W 045°05'1 1.1 26.8
2014-Sep-09 00:07N 34°59' W 045°05'0 0.0 26.8
2014-Sep-08 23:58N 34°59' W 045°05'150.4 26.8
2014-Sep-08 23:57N 34°58' W 045°05'0 0.0 26.9
2014-Sep-08 23:14N 34°58' W 045°05'1 4.7 26.8
2014-Sep-08 23:07N 34°57' W 045°05'0 0.0 26.8
2014-Sep-08 22:28N 34°57' W 045°05'245.0 26.9
2014-Sep-08 22:26N 34°56' W 045°05'0 0.0 26.9
2014-Sep-08 20:39N 34°56' W 045°05'1 6.0 26.9
2014-Sep-08 20:30N 34°55' W 045°05'0 0.2 26.9
2014-Sep-08 18:50N 34°55' W 045°05'0 0.0 27.0
2014-Sep-08 18:12N 34°55' W 045°05'1 0.6 27.0
2014-Sep-08 17:08N 34°55' W 045°06'2 3.2 27.0
2014-Sep-08 16:33N 34°53' W 045°07'0 0.0 27.0
2014-Sep-08 16:25N 34°53' W 045°07'1 0.4 27.0
2014-Sep-08 14:51N 34°52' W 045°07'0 0.0 26.9
2014-Sep-08 14:26N 34°52' W 045°07'1 8.2 26.9
2014-Sep-08 14:19N 34°52' W 045°08'0 0.0 26.9
2014-Sep-08 13:36N 34°52' W 045°08'0 0.5 26.8
2014-Sep-08 12:39N 34°52' W 045°08'0 0.0 26.7
2014-Sep-08 11:54N 34°52' W 045°08'115.5 26.7
2014-Sep-08 11:49N 34°51' W 045°09'0 0.0 26.7
2014-Sep-08 10:13N 34°51' W 045°09'0 0.4 26.7
2014-Sep-08 09:12N 34°50' W 045°10'0 1.4 26.7
2014-Sep-08 09:07N 34°51' W 045°10'0 1.0 26.7
2014-Sep-08 09:00N 34°51' W 045°10'115.3 26.7
2014-Sep-08 08:56N 34°50' W 045°10'0 0.2 26.7
2014-Sep-08 07:20N 34°50' W 045°10'0 0.0 26.7
2014-Sep-08 06:53N 34°50' W 045°10'0 0.0 26.7
2014-Sep-08 06:44N 34°50' W 045°10'113.0 26.7
2014-Sep-08 06:41N 34°49' W 045°11'0 0.0 26.7
2014-Sep-08 05:08N 34°49' W 045°11'0 2.0 26.8
2014-Sep-08 04:59N 34°49' W 045°11'1 0.4 26.8
2014-Sep-08 03:24N 34°48' W 045°12'0 0.0 26.8
2014-Sep-08 01:12N 34°48' W 045°12'0 1.2 27.0
2014-Sep-08 01:07N 34°48' W 045°12'0 0.0 27.0
2014-Sep-08 00:28N 34°48' W 045°12'1 1.1 27.0
2014-Sep-07 23:36N 34°48' W 045°13'0 2.0 27.0
2014-Sep-07 23:29N 34°48' W 045°13'0 0.3 27.0
2014-Sep-07 22:59N 34°48' W 045°13'0 0.0 27.0
2014-Sep-07 22:48N 34°48' W 045°13'1 1.2 27.0
2014-Sep-07 21:53N 34°48' W 045°14'0 0.0 27.1
2014-Sep-07 20:54N 34°48' W 045°14'0 0.7 27.2
2014-Sep-07 20:40N 34°48' W 045°14'113.8 27.3
2014-Sep-07 20:34N 34°48' W 045°16'0 0.0 27.3
2014-Sep-07 19:34N 34°48' W 045°16'1 1.5 27.3
2014-Sep-07 19:12N 34°47' W 045°16'0 0.0 27.4
2014-Sep-07 19:00N 34°47' W 045°16'0 0.2 27.4
2014-Sep-07 18:24N 34°47' W 045°16'0 1.8 27.5
2014-Sep-07 18:19N 34°47' W 045°16'0 0.3 27.5
2014-Sep-07 17:20N 34°47' W 045°16'0 0.0 27.5
2014-Sep-07 16:44N 34°47' W 045°16'1 0.6 27.3
2014-Sep-07 15:04N 34°47' W 045°18'0 0.0
2014-Sep-07 15:03N 34°47' W 045°18'0 0.9 27.0
2014-Sep-07 14:46N 34°47' W 045°18'0 1.9 27.0
2014-Sep-07 14:41N 34°47' W 045°18'0 0.0 27.0
2014-Sep-07 13:57N 34°47' W 045°18'0 0.0 26.9
2014-Sep-07 13:10N 34°47' W 045°18'1 3.9 26.8
2014-Sep-07 12:56N 34°47' W 045°19'0 0.0
2014-Sep-07 12:13N 34°47' W 045°19'0 1.5 26.7
2014-Sep-07 12:11N 34°47' W 045°19'124.4 26.7
2014-Sep-07 12:08N 34°48' W 045°20'0 0.0 26.7
2014-Sep-07 10:42N 34°48' W 045°20'0 0.0 26.7
2014-Sep-07 09:38N 34°48' W 045°20'0 0.0 26.7
2014-Sep-07 09:33N 34°48' W 045°20'0 4.8 26.7
2014-Sep-07 09:29N 34°48' W 045°21'0 0.4 26.7
2014-Sep-07 09:13N 34°48' W 045°21'113.9 26.7
2014-Sep-07 09:08N 34°48' W 045°22'132.9 26.7
2014-Sep-07 09:06N 34°48' W 045°21'1 0.9 26.7
2014-Sep-07 07:51N 34°48' W 045°22'0 0.0 26.7
2014-Sep-07 07:31N 34°48' W 045°22'0 5.9 26.7
2014-Sep-07 07:28N 34°48' W 045°22'0 8.9 26.7
2014-Sep-07 07:26N 34°48' W 045°22'0 0.7 26.7
2014-Sep-07 06:59N 34°48' W 045°22'111.8 26.7
2014-Sep-07 06:52N 34°49' W 045°24'0 0.0 26.7
2014-Sep-07 05:48N 34°49' W 045°24'0 0.0 26.7
2014-Sep-07 05:14N 34°49' W 045°24'115.8 26.7
2014-Sep-07 05:10N 34°50' W 045°25'0 0.0 26.8
2014-Sep-07 03:38N 34°50' W 045°25'118.5 26.8
2014-Sep-07 03:34N 34°50' W 045°26'1 0.3 26.8
2014-Sep-07 01:29N 34°50' W 045°27'0 0.0 26.9
2014-Sep-07 00:48N 34°50' W 045°27'1 0.8 26.9
2014-Sep-06 23:57N 34°50' W 045°28'1 1.1 26.9
2014-Sep-06 23:28N 34°51' W 045°28'0 0.0 26.9
2014-Sep-06 23:08N 34°51' W 045°28'1 5.2 26.9
2014-Sep-06 23:00N 34°51' W 045°29'0 0.0 26.9
2014-Sep-06 22:11N 34°51' W 045°29'0 1.0 27.0
2014-Sep-06 22:08N 34°51' W 045°29'0 0.0
2014-Sep-06 21:52N 34°51' W 045°29'0 0.5 27.0
2014-Sep-06 21:18N 34°52' W 045°29'0 0.8 27.0
2014-Sep-06 20:51N 34°52' W 045°29'119.3
2014-Sep-06 20:48N 34°53' W 045°30'0 0.7 27.0
2014-Sep-06 20:12N 34°52' W 045°30'0 3.6 27.1
2014-Sep-06 20:05N 34°53' W 045°30'0 0.0 27.1
2014-Sep-06 19:40N 34°53' W 045°30'1 5.4 27.0
2014-Sep-06 19:34N 34°53' W 045°31'0 0.0 27.0
2014-Sep-06 19:11N 34°53' W 045°31'1 0.6 27.0
2014-Sep-06 17:56N 34°54' W 045°31'1 1.5 27.0
2014-Sep-06 17:30N 34°54' W 045°31'0 0.0 27.0
2014-Sep-06 16:56N 34°54' W 045°31'2 1.0 26.9
2014-Sep-06 15:14N 34°56' W 045°32'256.8 26.9
2014-Sep-06 15:12N 34°57' W 045°33'0 0.0 26.9
2014-Sep-06 14:13N 34°57' W 045°33'0 0.0 26.9
2014-Sep-06 13:29N 34°57' W 045°33'   26.8
Track history (hours):
 
Tides and Currents Weather Stations Pressure Air Temp Water Temp Dewpoint Dewpoint Depression Visibility Wind Speed Wind Dir Waves Ship Positions

Drifting buoy 41991

Last reported at 2014-Sep-16 13:13 UTC. Time now 2014-Sep-16 15:34 UTC.
Position N 34°53' W 045°15'.

Water temperature 26.9 ° C

Date/timePositionNaut miles runAvg speedWind from/ knotsBaromVisibWave heightAir tempDewpointWater temp
2014-Sep-16 13:13N 34°53' W 045°15'1 1.2 26.9
2014-Sep-16 12:21N 34°52' W 045°16'0 0.0 26.7
2014-Sep-16 11:35N 34°52' W 045°16'0 0.0 26.7
2014-Sep-16 10:51N 34°52' W 045°16'120.8 26.6
2014-Sep-16 10:47N 34°51' W 045°16'0 0.0 26.6
2014-Sep-16 09:23N 34°51' W 045°16'1 3.0 26.6
2014-Sep-16 09:07N 34°50' W 045°16'0 0.0 26.6
2014-Sep-16 09:05N 34°50' W 045°16'0 0.0 26.6
2014-Sep-16 07:43N 34°50' W 045°16'0 2.6 26.7
2014-Sep-16 07:40N 34°50' W 045°16'0 1.6 26.7
2014-Sep-16 07:29N 34°50' W 045°16'0 2.3
2014-Sep-16 07:27N 34°50' W 045°16'0 0.0 26.7
2014-Sep-16 06:59N 34°50' W 045°16'111.8 26.8
2014-Sep-16 06:53N 34°49' W 045°17'0 0.0 26.8
2014-Sep-16 05:19N 34°49' W 045°17'1 8.4 26.8
2014-Sep-16 05:12N 34°49' W 045°18'0 0.0 26.8
2014-Sep-16 03:39N 34°49' W 045°18'110.8 26.9
2014-Sep-16 03:32N 34°48' W 045°19'0 0.1 26.9
2014-Sep-16 01:48N 34°48' W 045°19'1 8.7 26.9
2014-Sep-16 01:43N 34°47' W 045°20'1 1.7 26.9
2014-Sep-16 00:55N 34°47' W 045°21'0 0.0 26.9
2014-Sep-16 00:10N 34°47' W 045°21'1 0.7 26.9
2014-Sep-15 23:22N 34°46' W 045°21'1 0.9 27.1
2014-Sep-15 22:29N 34°46' W 045°22'1 5.9 27.2
2014-Sep-15 22:23N 34°46' W 045°22'0 0.0 27.2
2014-Sep-15 22:09N 34°46' W 045°22'1 0.6 27.3
2014-Sep-15 20:58N 34°45' W 045°22'0 2.5 27.5
2014-Sep-15 20:49N 34°45' W 045°22'0 3.2 27.5
2014-Sep-15 20:43N 34°44' W 045°22'0 0.0
2014-Sep-15 20:20N 34°44' W 045°22'0 0.0 27.7
2014-Sep-15 19:11N 34°44' W 045°22'1 9.9 28.1
2014-Sep-15 19:04N 34°44' W 045°23'0 0.0 28.1
2014-Sep-15 18:35N 34°44' W 045°23'1 0.5 28.2
2014-Sep-15 17:29N 34°44' W 045°22'0 0.7 28.3
2014-Sep-15 16:57N 34°44' W 045°23'1 0.4 28.3
2014-Sep-15 15:14N 34°44' W 045°24'1 0.9 28.0
2014-Sep-15 14:29N 34°44' W 045°24'0 0.1 27.4
2014-Sep-15 13:43N 34°43' W 045°24'0 1.5 27.3
2014-Sep-15 13:35N 34°44' W 045°25'0 0.0 27.3
2014-Sep-15 12:44N 34°44' W 045°25'120.0
2014-Sep-15 12:42N 34°44' W 045°25'0 0.0 26.9
2014-Sep-15 11:59N 34°44' W 045°25'236.7
2014-Sep-15 11:56N 34°44' W 045°28'0 0.0 26.8
2014-Sep-15 11:06N 34°44' W 045°28'0 0.0 26.7
2014-Sep-15 09:54N 34°44' W 045°28'0 0.6 26.7
2014-Sep-15 09:40N 34°44' W 045°28'0 1.3 26.7
2014-Sep-15 09:26N 34°44' W 045°28'1 8.0 26.7
2014-Sep-15 09:19N 34°44' W 045°29'0 0.1 26.7
2014-Sep-15 07:57N 34°44' W 045°29'0 1.5 26.7
2014-Sep-15 07:37N 34°44' W 045°29'0 0.0 26.7
2014-Sep-15 07:12N 34°44' W 045°29'1 9.6 26.7
2014-Sep-15 07:05N 34°44' W 045°31'0 0.0 26.7
2014-Sep-15 06:33N 34°44' W 045°31'0 0.0 26.7
2014-Sep-15 05:57N 34°44' W 045°31'0 0.0 26.7
2014-Sep-15 05:30N 34°44' W 045°31'114.8 26.7
2014-Sep-15 05:25N 34°44' W 045°32'0 0.0 26.7
2014-Sep-15 03:47N 34°44' W 045°32'1 0.6 26.7
2014-Sep-15 02:09N 34°44' W 045°33'0 0.2 26.8
2014-Sep-15 01:22N 34°44' W 045°33'012.3 26.8
2014-Sep-15 01:21N 34°44' W 045°33'0 0.6 26.8
2014-Sep-15 00:31N 34°43' W 045°34'1 0.7 26.8
2014-Sep-14 23:41N 34°43' W 045°35'0 0.5 26.8
2014-Sep-14 22:49N 34°44' W 045°35'110.7 26.8
2014-Sep-14 22:44N 34°44' W 045°36'0 0.2 26.8
2014-Sep-14 21:18N 34°44' W 045°36'1 4.0 26.9
2014-Sep-14 20:59N 34°45' W 045°38'0 0.0 26.9
2014-Sep-14 20:48N 34°45' W 045°38'0 0.0
2014-Sep-14 19:42N 34°45' W 045°38'0 0.1 26.9
2014-Sep-14 19:22N 34°45' W 045°38'1 1.9 26.9
2014-Sep-14 18:45N 34°45' W 045°39'0 0.0 26.9
2014-Sep-14 17:57N 34°45' W 045°39'0 9.2 26.9
2014-Sep-14 17:55N 34°45' W 045°39'0 0.0 26.9
2014-Sep-14 17:41N 34°45' W 045°39'0 0.5 26.9
2014-Sep-14 17:09N 34°46' W 045°39'1 0.7 26.9
2014-Sep-14 15:27N 34°46' W 045°40'1 1.2 26.8
2014-Sep-14 14:49N 34°47' W 045°41'0 0.0 26.7
2014-Sep-14 13:59N 34°47' W 045°41'114.5 26.7
2014-Sep-14 13:54N 34°48' W 045°42'1 1.4 26.7
2014-Sep-14 13:11N 34°47' W 045°41'1 1.2 26.7
2014-Sep-14 12:21N 34°48' W 045°42'1 1.4 26.7
2014-Sep-14 11:23N 34°48' W 045°43'0 0.0 26.7
2014-Sep-14 10:24N 34°48' W 045°43'1 2.1 26.7
2014-Sep-14 09:59N 34°49' W 045°43'112.1 26.7
2014-Sep-14 09:55N 34°50' W 045°44'0 0.7 26.7
2014-Sep-14 09:30N 34°50' W 045°44'0 0.0 26.7
2014-Sep-14 08:46N 34°50' W 045°44'0 0.9 26.7
2014-Sep-14 08:21N 34°50' W 045°45'1 2.5 26.7
2014-Sep-14 07:54N 34°51' W 045°46'0 0.0 26.7
2014-Sep-14 07:49N 34°51' W 045°46'0 0.0 26.7
2014-Sep-14 07:22N 34°51' W 045°46'0 0.9 26.7
2014-Sep-14 07:04N 34°51' W 045°46'1 1.9 26.7
2014-Sep-14 06:41N 34°52' W 045°46'1 1.1 26.7
2014-Sep-14 06:10N 34°52' W 045°47'0 0.0 26.7
2014-Sep-14 05:40N 34°52' W 045°47'2 1.1 26.7
2014-Sep-14 03:58N 34°54' W 045°48'232.6 26.7
2014-Sep-14 03:55N 34°55' W 045°49'0 0.0 26.7
2014-Sep-14 01:43N 34°55' W 045°49'1 0.7 26.8
2014-Sep-14 00:51N 34°56' W 045°49'0 1.0 26.8
2014-Sep-14 00:48N 34°56' W 045°49'1 1.1 26.8
2014-Sep-14 00:05N 34°57' W 045°50'0 0.0 26.8
2014-Sep-14 00:00N 34°57' W 045°50'1 1.2 26.8
2014-Sep-13 23:10N 34°57' W 045°50'1 1.0 26.8
2014-Sep-13 21:44N 34°59' W 045°51'231.8 26.8
2014-Sep-13 21:40N 35°01' W 045°51'211.3 26.8
2014-Sep-13 21:32N 34°59' W 045°51'2 4.1 26.8
2014-Sep-13 21:10N 35°01' W 045°51'0 0.0 26.8
2014-Sep-13 20:08N 35°01' W 045°51'132.3 26.8
2014-Sep-13 20:06N 35°02' W 045°52'0 0.0 26.8
2014-Sep-13 19:46N 35°02' W 045°52'0 0.0 26.9
2014-Sep-13 19:34N 35°02' W 045°52'2 1.9 26.9
2014-Sep-13 18:26N 35°04' W 045°52'0 0.0 26.9
2014-Sep-13 17:52N 35°04' W 045°52'1 1.4 26.8
2014-Sep-13 17:20N 35°05' W 045°53'0 1.0 26.8
2014-Sep-13 17:13N 35°04' W 045°53'2 1.4 26.8
2014-Sep-13 15:38N 35°06' W 045°54'0 0.0 26.8
2014-Sep-13 15:06N 35°06' W 045°54'1 1.9 26.7
2014-Sep-13 14:24N 35°08' W 045°54'318.6 26.7
2014-Sep-13 14:13N 35°11' W 045°56'0 0.2 26.7
2014-Sep-13 12:35N 35°10' W 045°56'0 0.0 26.7
2014-Sep-13 11:52N 35°10' W 045°56'1 0.9 26.7
2014-Sep-13 10:26N 35°12' W 045°56'1 1.6 26.7
2014-Sep-13 09:47N 35°13' W 045°56'112.3 26.7
2014-Sep-13 09:42N 35°14' W 045°55'1 1.3 26.7
2014-Sep-13 09:13N 35°13' W 045°56'1 1.4 26.7
2014-Sep-13 08:45N 35°14' W 045°55'1 1.2 26.7
2014-Sep-13 08:07N 35°14' W 045°55'1 6.2 26.7
2014-Sep-13 08:02N 35°15' W 045°56'0 0.2 26.7
2014-Sep-13 07:35N 35°15' W 045°56'1 4.8 26.7
2014-Sep-13 07:28N 35°16' W 045°56'0 0.0 26.7
2014-Sep-13 07:08N 35°16' W 045°56'211.5 26.7
2014-Sep-13 06:59N 35°17' W 045°55'0 0.0 26.7
2014-Sep-13 05:52N 35°17' W 045°55'325.8 26.7
2014-Sep-13 05:46N 35°20' W 045°55'0 0.0 26.7
2014-Sep-13 04:12N 35°20' W 045°55'0 3.8 26.7
2014-Sep-13 04:08N 35°20' W 045°56'475.6 26.7
2014-Sep-13 04:05N 35°24' W 045°56'0 0.0 26.7
2014-Sep-13 01:58N 35°24' W 045°56'0 0.0 26.7
2014-Sep-13 01:12N 35°24' W 045°56'110.2 26.8
2014-Sep-13 01:05N 35°25' W 045°56'0 0.0 26.8
2014-Sep-13 00:25N 35°25' W 045°56'1 1.4 26.8
2014-Sep-12 23:34N 35°26' W 045°55'1 8.7 26.8
2014-Sep-12 23:25N 35°27' W 045°56'0 0.0 26.8
2014-Sep-12 22:44N 35°27' W 045°56'2 2.4 26.8
2014-Sep-12 21:59N 35°29' W 045°55'0 0.0 26.8
2014-Sep-12 20:32N 35°29' W 045°55'0 0.0 26.9
2014-Sep-12 20:14N 35°29' W 045°55'0 0.0 26.9
2014-Sep-12 19:45N 35°29' W 045°55'1 1.0 26.9
2014-Sep-12 18:52N 35°29' W 045°55'0 2.1 26.9
2014-Sep-12 18:43N 35°30' W 045°55'0 0.0 26.9
2014-Sep-12 18:04N 35°30' W 045°55'1 1.5 26.9
2014-Sep-12 17:30N 35°30' W 045°54'1 0.9 27.0
2014-Sep-12 15:50N 35°31' W 045°53'2 1.3 26.9
2014-Sep-12 14:40N 35°32' W 045°51'2 2.6 26.9
2014-Sep-12 13:54N 35°34' W 045°52'0 0.0 26.8
2014-Sep-12 13:06N 35°34' W 045°52'1 4.6 26.7
2014-Sep-12 12:55N 35°35' W 045°51'0 0.0 26.7
2014-Sep-12 12:12N 35°35' W 045°51'3 3.0 26.7
2014-Sep-12 11:17N 35°37' W 045°50'0 0.0 26.6
2014-Sep-12 10:45N 35°37' W 045°50'0 0.0 26.7
2014-Sep-12 09:59N 35°37' W 045°50'0 3.0 26.7
2014-Sep-12 09:53N 35°38' W 045°50'0 3.6 26.7
2014-Sep-12 09:48N 35°37' W 045°50'0 9.1 26.7
2014-Sep-12 09:46N 35°38' W 045°50'0 0.0 26.7
2014-Sep-12 09:11N 35°38' W 045°50'111.4 26.7
2014-Sep-12 09:07N 35°38' W 045°49'0 0.0 26.7
2014-Sep-12 08:19N 35°38' W 045°49'0 0.0 26.7
2014-Sep-12 08:10N 35°38' W 045°49'1 2.0 26.7
2014-Sep-12 07:41N 35°39' W 045°49'0 0.0 26.7
2014-Sep-12 07:31N 35°39' W 045°49'1 0.8 26.7
2014-Sep-12 06:39N 35°39' W 045°49'0 3.0 26.7
2014-Sep-12 06:32N 35°40' W 045°48'0 0.2 26.7
2014-Sep-12 06:00N 35°39' W 045°48'1 7.0 26.7
2014-Sep-12 05:53N 35°40' W 045°48'0 0.1 26.7
2014-Sep-12 04:23N 35°40' W 045°48'1 7.7 26.7
2014-Sep-12 04:18N 35°40' W 045°49'2 0.7 26.7
2014-Sep-12 01:34N 35°41' W 045°46'1 4.0 26.6
2014-Sep-12 01:25N 35°41' W 045°46'0 0.0 26.6
2014-Sep-12 00:46N 35°41' W 045°46'117.9 26.6
2014-Sep-12 00:44N 35°41' W 045°45'0 0.0 26.6
2014-Sep-11 23:54N 35°41' W 045°45'0 0.6 26.6
2014-Sep-11 23:04N 35°41' W 045°44'1 8.9 26.6
2014-Sep-11 22:59N 35°41' W 045°44'0 0.0 26.7
2014-Sep-11 22:34N 35°41' W 045°44'2 1.0 26.8
2014-Sep-11 20:56N 35°42' W 045°42'0 0.0 26.9
2014-Sep-11 20:45N 35°42' W 045°42'0 0.0 26.9
2014-Sep-11 19:57N 35°42' W 045°42'0 0.0 26.9
2014-Sep-11 19:52N 35°42' W 045°42'0 0.4 26.9
2014-Sep-11 19:12N 35°42' W 045°42'113.2 26.9
2014-Sep-11 19:07N 35°43' W 045°41'1 0.6 26.9
2014-Sep-11 18:13N 35°43' W 045°40'0 0.1 26.9
2014-Sep-11 17:41N 35°43' W 045°40'1 0.4 26.9
2014-Sep-11 16:00N 35°43' W 045°40'2 0.9 26.9
2014-Sep-11 14:16N 35°43' W 045°38'0 0.0 26.8
2014-Sep-11 14:13N 35°43' W 045°38'1 0.7 26.8
2014-Sep-11 12:26N 35°43' W 045°36'2 0.7 26.7
2014-Sep-11 10:05N 35°42' W 045°34'0 0.0 26.7
2014-Sep-11 09:38N 35°42' W 045°34'0 5.5 26.7
2014-Sep-11 09:33N 35°42' W 045°34'0 0.3 26.7
2014-Sep-11 08:30N 35°42' W 045°33'116.6 26.7
2014-Sep-11 08:25N 35°41' W 045°32'0 0.0 26.7
2014-Sep-11 07:55N 35°41' W 045°32'0 0.1 26.7
2014-Sep-11 06:49N 35°42' W 045°32'0 2.4 26.7
2014-Sep-11 06:45N 35°42' W 045°32'112.9 26.7
2014-Sep-11 06:42N 35°41' W 045°31'0 0.0 26.7
2014-Sep-11 06:13N 35°41' W 045°31'114.6 26.7
2014-Sep-11 06:09N 35°41' W 045°30'0 0.0 26.7
2014-Sep-11 06:06N 35°41' W 045°30'0 0.0 26.7
2014-Sep-11 04:35N 35°41' W 045°30'323.4 26.8
2014-Sep-11 04:28N 35°40' W 045°27'0 0.0 26.8
2014-Sep-11 01:53N 35°40' W 045°27'1 6.2 26.9
2014-Sep-11 01:47N 35°39' W 045°27'0 0.1 26.9
2014-Sep-11 01:03N 35°39' W 045°27'114.4
2014-Sep-11 00:59N 35°39' W 045°25'0 0.0 27.0
2014-Sep-11 00:15N 35°39' W 045°25'1 0.6 27.0
2014-Sep-10 23:25N 35°39' W 045°25'0 2.7 27.1
2014-Sep-10 23:14N 35°39' W 045°25'0 0.0
2014-Sep-10 23:00N 35°39' W 045°25'0 0.4 27.0
2014-Sep-10 22:29N 35°38' W 045°25'2 1.5 27.1
2014-Sep-10 21:20N 35°38' W 045°23'1 0.6 27.2
2014-Sep-10 20:08N 35°37' W 045°23'0 0.9 27.4
2014-Sep-10 20:03N 35°37' W 045°23'2 4.1 27.5
2014-Sep-10 19:40N 35°36' W 045°22'0 0.0 27.6
2014-Sep-10 18:27N 35°36' W 045°22'1 1.2 27.7
2014-Sep-10 17:58N 35°36' W 045°21'0 1.6 27.6
2014-Sep-10 17:53N 35°36' W 045°21'2 1.5 27.6
2014-Sep-10 16:43N 35°34' W 045°20'0 0.0 27.4
2014-Sep-10 16:13N 35°34' W 045°20'0 0.0 27.3
2014-Sep-10 16:10N 35°34' W 045°20'2 1.2 27.3
2014-Sep-10 14:33N 35°33' W 045°18'0 0.0 27.2
2014-Sep-10 14:30N 35°33' W 045°18'1 1.2 27.1
2014-Sep-10 13:45N 35°32' W 045°17'3 1.7 26.9
2014-Sep-10 11:58N 35°30' W 045°15'0 0.0 26.7
2014-Sep-10 11:12N 35°30' W 045°15'1 7.9 26.7
2014-Sep-10 11:06N 35°29' W 045°15'0 0.0 26.7
2014-Sep-10 10:47N 35°29' W 045°15'0 0.0 26.7
2014-Sep-10 09:59N 35°29' W 045°15'135.2 26.7
2014-Sep-10 09:57N 35°29' W 045°14'0 0.0 26.7
2014-Sep-10 09:12N 35°29' W 045°14'0 1.1 26.7
2014-Sep-10 08:44N 35°28' W 045°13'0 4.1 26.7
2014-Sep-10 08:37N 35°28' W 045°13'115.1 26.7
2014-Sep-10 08:33N 35°27' W 045°12'0 0.0 26.7
2014-Sep-10 08:13N 35°27' W 045°12'0 0.0 26.7
2014-Sep-10 07:32N 35°27' W 045°12'0 0.0 26.7
2014-Sep-10 07:29N 35°27' W 045°12'1 1.0 26.7
2014-Sep-10 06:58N 35°27' W 045°12'1 1.9 26.7
2014-Sep-10 06:37N 35°26' W 045°11'0 0.0 26.7
2014-Sep-10 06:28N 35°26' W 045°11'0 1.8 26.7
2014-Sep-10 06:21N 35°26' W 045°11'118.4 26.7
2014-Sep-10 06:17N 35°25' W 045°10'0 0.0 26.7
2014-Sep-10 04:45N 35°25' W 045°10'329.2 26.7
2014-Sep-10 04:38N 35°22' W 045°09'0 0.0 26.7
2014-Sep-10 02:11N 35°22' W 045°09'1 1.3 26.7
2014-Sep-10 01:25N 35°21' W 045°09'0 0.1 26.7
2014-Sep-10 00:35N 35°21' W 045°09'1 1.5 26.8
2014-Sep-09 23:45N 35°20' W 045°09'0 3.0 26.8
2014-Sep-09 23:40N 35°20' W 045°08'1 1.5 26.8
2014-Sep-09 22:55N 35°19' W 045°08'1 6.8 26.8
2014-Sep-09 22:44N 35°18' W 045°08'0 0.0 26.8
2014-Sep-09 21:58N 35°18' W 045°08'0 1.2 26.9
2014-Sep-09 21:44N 35°18' W 045°07'2 1.2 26.9
2014-Sep-09 20:11N 35°16' W 045°06'117.1 27.0
2014-Sep-09 20:06N 35°15' W 045°05'0 0.0 27.0
2014-Sep-09 18:38N 35°15' W 045°05'0 0.6 27.1
2014-Sep-09 17:59N 35°15' W 045°05'1 1.2 27.1
2014-Sep-09 16:55N 35°13' W 045°05'0 0.0 27.1
2014-Sep-09 16:23N 35°13' W 045°05'1 0.9 27.1
2014-Sep-09 14:52N 35°12' W 045°05'0 0.0 26.9
2014-Sep-09 14:41N 35°12' W 045°05'1 1.2 26.9
2014-Sep-09 14:07N 35°12' W 045°05'211.8 26.9
2014-Sep-09 13:58N 35°10' W 045°04'1 0.9 26.8
2014-Sep-09 13:14N 35°10' W 045°05'1 0.7 26.7
2014-Sep-09 12:22N 35°10' W 045°04'116.7 26.7
2014-Sep-09 12:19N 35°09' W 045°04'0 0.0 26.7
2014-Sep-09 11:34N 35°09' W 045°04'0 2.8 26.7
2014-Sep-09 11:29N 35°09' W 045°04'1 1.1 26.7
2014-Sep-09 10:24N 35°08' W 045°04'114.4 26.7
2014-Sep-09 10:21N 35°07' W 045°04'0 0.0 26.7
2014-Sep-09 09:42N 35°07' W 045°04'1 0.9 26.7
2014-Sep-09 08:53N 35°07' W 045°04'0 0.0 26.7
2014-Sep-09 08:48N 35°07' W 045°04'119.2 26.7
2014-Sep-09 08:45N 35°06' W 045°04'0 0.0 26.7
2014-Sep-09 08:00N 35°06' W 045°04'1 0.7 26.7
2014-Sep-09 07:12N 35°05' W 045°04'1 6.5 26.7
2014-Sep-09 07:06N 35°04' W 045°04'0 0.0 26.7
2014-Sep-09 06:40N 35°04' W 045°04'1 7.0 26.7
2014-Sep-09 06:29N 35°03' W 045°05'0 0.0 26.7
2014-Sep-09 05:00N 35°03' W 045°05'0 0.0 26.7
2014-Sep-09 04:56N 35°03' W 045°05'0 1.4 26.7
2014-Sep-09 04:51N 35°03' W 045°04'352.3 26.7
2014-Sep-09 04:47N 34°60' W 045°05'0 0.0 26.7
2014-Sep-09 03:13N 34°60' W 045°05'0 0.0 26.7
2014-Sep-09 01:40N 34°60' W 045°05'0 0.0 26.8
2014-Sep-09 00:56N 34°60' W 045°05'0 0.0 26.8
2014-Sep-09 00:52N 34°60' W 045°05'1 1.1 26.8
2014-Sep-09 00:07N 34°59' W 045°05'0 0.0 26.8
2014-Sep-08 23:58N 34°59' W 045°05'150.4 26.8
2014-Sep-08 23:57N 34°58' W 045°05'0 0.0 26.9
2014-Sep-08 23:14N 34°58' W 045°05'1 4.7 26.8
2014-Sep-08 23:07N 34°57' W 045°05'0 0.0 26.8
2014-Sep-08 22:28N 34°57' W 045°05'245.0 26.9
2014-Sep-08 22:26N 34°56' W 045°05'0 0.0 26.9
2014-Sep-08 20:39N 34°56' W 045°05'1 6.0 26.9
2014-Sep-08 20:30N 34°55' W 045°05'0 0.2 26.9
2014-Sep-08 18:50N 34°55' W 045°05'0 0.0 27.0
2014-Sep-08 18:12N 34°55' W 045°05'1 0.6 27.0
2014-Sep-08 17:08N 34°55' W 045°06'2 3.2 27.0
2014-Sep-08 16:33N 34°53' W 045°07'0 0.0 27.0
2014-Sep-08 16:25N 34°53' W 045°07'1 0.4 27.0
2014-Sep-08 14:51N 34°52' W 045°07'0 0.0 26.9
2014-Sep-08 14:26N 34°52' W 045°07'1 8.2 26.9
2014-Sep-08 14:19N 34°52' W 045°08'0 0.0 26.9
2014-Sep-08 13:36N 34°52' W 045°08'0 0.5 26.8
2014-Sep-08 12:39N 34°52' W 045°08'0 0.0 26.7
2014-Sep-08 11:54N 34°52' W 045°08'115.5 26.7
2014-Sep-08 11:49N 34°51' W 045°09'0 0.0 26.7
2014-Sep-08 10:13N 34°51' W 045°09'0 0.4 26.7
2014-Sep-08 09:12N 34°50' W 045°10'0 1.4 26.7
2014-Sep-08 09:07N 34°51' W 045°10'0 1.0 26.7
2014-Sep-08 09:00N 34°51' W 045°10'115.3 26.7
2014-Sep-08 08:56N 34°50' W 045°10'0 0.2 26.7
2014-Sep-08 07:20N 34°50' W 045°10'0 0.0 26.7
2014-Sep-08 06:53N 34°50' W 045°10'0 0.0 26.7
2014-Sep-08 06:44N 34°50' W 045°10'113.0 26.7
2014-Sep-08 06:41N 34°49' W 045°11'0 0.0 26.7
2014-Sep-08 05:08N 34°49' W 045°11'0 2.0 26.8
2014-Sep-08 04:59N 34°49' W 045°11'1 0.4 26.8
2014-Sep-08 03:24N 34°48' W 045°12'0 0.0 26.8
2014-Sep-08 01:12N 34°48' W 045°12'0 1.2 27.0
2014-Sep-08 01:07N 34°48' W 045°12'0 0.0 27.0
2014-Sep-08 00:28N 34°48' W 045°12'1 1.1 27.0
2014-Sep-07 23:36N 34°48' W 045°13'0 2.0 27.0
2014-Sep-07 23:29N 34°48' W 045°13'0 0.3 27.0
2014-Sep-07 22:59N 34°48' W 045°13'0 0.0 27.0
2014-Sep-07 22:48N 34°48' W 045°13'1 1.2 27.0
2014-Sep-07 21:53N 34°48' W 045°14'0 0.0 27.1
2014-Sep-07 20:54N 34°48' W 045°14'0 0.7 27.2
2014-Sep-07 20:40N 34°48' W 045°14'113.8 27.3
2014-Sep-07 20:34N 34°48' W 045°16'0 0.0 27.3
2014-Sep-07 19:34N 34°48' W 045°16'1 1.5 27.3
2014-Sep-07 19:12N 34°47' W 045°16'0 0.0 27.4
2014-Sep-07 19:00N 34°47' W 045°16'0 0.2 27.4
2014-Sep-07 18:24N 34°47' W 045°16'0 1.8 27.5
2014-Sep-07 18:19N 34°47' W 045°16'0 0.3 27.5
2014-Sep-07 17:20N 34°47' W 045°16'0 0.0 27.5
2014-Sep-07 16:44N 34°47' W 045°16'1 0.6 27.3
2014-Sep-07 15:04N 34°47' W 045°18'0 0.0
2014-Sep-07 15:03N 34°47' W 045°18'0 0.9 27.0
2014-Sep-07 14:46N 34°47' W 045°18'0 1.9 27.0
2014-Sep-07 14:41N 34°47' W 045°18'0 0.0 27.0
2014-Sep-07 13:57N 34°47' W 045°18'0 0.0 26.9
2014-Sep-07 13:10N 34°47' W 045°18'1 3.9 26.8
2014-Sep-07 12:56N 34°47' W 045°19'0 0.0
2014-Sep-07 12:13N 34°47' W 045°19'0 1.5 26.7
2014-Sep-07 12:11N 34°47' W 045°19'124.4 26.7
2014-Sep-07 12:08N 34°48' W 045°20'0 0.0 26.7
2014-Sep-07 10:42N 34°48' W 045°20'0 0.0 26.7
2014-Sep-07 09:38N 34°48' W 045°20'0 0.0 26.7
2014-Sep-07 09:33N 34°48' W 045°20'0 4.8 26.7
2014-Sep-07 09:29N 34°48' W 045°21'0 0.4 26.7
2014-Sep-07 09:13N 34°48' W 045°21'113.9 26.7
2014-Sep-07 09:08N 34°48' W 045°22'132.9 26.7
2014-Sep-07 09:06N 34°48' W 045°21'1 0.9 26.7
2014-Sep-07 07:51N 34°48' W 045°22'0 0.0 26.7
2014-Sep-07 07:31N 34°48' W 045°22'0 5.9 26.7
2014-Sep-07 07:28N 34°48' W 045°22'0 8.9 26.7
2014-Sep-07 07:26N 34°48' W 045°22'0 0.7 26.7
2014-Sep-07 06:59N 34°48' W 045°22'111.8 26.7
2014-Sep-07 06:52N 34°49' W 045°24'0 0.0 26.7
2014-Sep-07 05:48N 34°49' W 045°24'0 0.0 26.7
2014-Sep-07 05:14N 34°49' W 045°24'115.8 26.7
2014-Sep-07 05:10N 34°50' W 045°25'0 0.0 26.8
2014-Sep-07 03:38N 34°50' W 045°25'118.5 26.8
2014-Sep-07 03:34N 34°50' W 045°26'1 0.3 26.8
2014-Sep-07 01:29N 34°50' W 045°27'0 0.0 26.9
2014-Sep-07 00:48N 34°50' W 045°27'1 0.8 26.9
2014-Sep-06 23:57N 34°50' W 045°28'1 1.1 26.9
2014-Sep-06 23:28N 34°51' W 045°28'0 0.0 26.9
2014-Sep-06 23:08N 34°51' W 045°28'1 5.2 26.9
2014-Sep-06 23:00N 34°51' W 045°29'0 0.0 26.9
2014-Sep-06 22:11N 34°51' W 045°29'0 1.0 27.0
2014-Sep-06 22:08N 34°51' W 045°29'0 0.0
2014-Sep-06 21:52N 34°51' W 045°29'0 0.5 27.0
2014-Sep-06 21:18N 34°52' W 045°29'0 0.8 27.0
2014-Sep-06 20:51N 34°52' W 045°29'119.3
2014-Sep-06 20:48N 34°53' W 045°30'0 0.7 27.0
2014-Sep-06 20:12N 34°52' W 045°30'0 3.6 27.1
2014-Sep-06 20:05N 34°53' W 045°30'0 0.0 27.1
2014-Sep-06 19:40N 34°53' W 045°30'1 5.4 27.0
2014-Sep-06 19:34N 34°53' W 045°31'0 0.0 27.0
2014-Sep-06 19:11N 34°53' W 045°31'1 0.6 27.0
2014-Sep-06 17:56N 34°54' W 045°31'1 1.5 27.0
2014-Sep-06 17:30N 34°54' W 045°31'0 0.0 27.0
2014-Sep-06 16:56N 34°54' W 045°31'2 1.0 26.9
2014-Sep-06 15:14N 34°56' W 045°32'256.8 26.9
2014-Sep-06 15:12N 34°57' W 045°33'0 0.0 26.9
2014-Sep-06 14:13N 34°57' W 045°33'0 0.0 26.9
2014-Sep-06 13:29N 34°57' W 045°33'   26.8

Dump ship's entire track history